Time;durP1;ratioP1;P1;durP2;ratioP2;P2;SDS_P1;SDS_P2;PMS_P1;PMS_P2;Temp;Humidity;BMP_temperature;BMP_pressure;BME280_temperature;BME280_humidity;BME280_pressure;Samples;Min_cycle;Max_cycle;Signal;HPM_P1;HPM_P2
2023/05/07 00:01:48;;;;;;;8.00;5.03;;;;;;;18.25;55.24;97348.63;5031556;28;20208;-70
2023/05/07 00:04:13;;;;;;;10.17;5.60;;;;;;;18.21;55.56;97347.41;5033841;28;20190;-70
2023/05/07 00:06:39;;;;;;;7.00;5.50;;;;;;;18.25;55.70;97348.63;5035837;28;20267;-71
2023/05/07 00:09:05;;;;;;;9.97;5.03;;;;;;;18.23;55.50;97351.47;5039994;28;20221;-71
2023/05/07 00:11:32;;;;;;;8.87;5.40;;;;;;;18.17;55.77;97346.94;5037260;28;20429;-70
2023/05/07 00:13:57;;;;;;;6.33;4.90;;;;;;;18.11;55.83;97345.09;5035772;28;20433;-70
2023/05/07 00:16:22;;;;;;;8.00;4.93;;;;;;;18.03;56.14;97350.56;5034761;28;20541;-69
2023/05/07 00:18:48;;;;;;;10.07;5.50;;;;;;;18.10;56.18;97348.78;5027920;28;20186;-69
2023/05/07 00:21:13;;;;;;;7.07;4.73;;;;;;;18.10;55.87;97341.63;5030929;28;20207;-70
2023/05/07 00:23:39;;;;;;;7.47;4.70;;;;;;;18.17;55.65;97346.94;5038654;28;21711;-70
2023/05/07 00:26:04;;;;;;;5.10;4.60;;;;;;;18.15;56.04;97338.38;5032922;28;20213;-69
2023/05/07 00:28:30;;;;;;;5.60;4.07;;;;;;;18.16;55.96;97344.50;5035644;28;20176;-69
2023/05/07 00:30:56;;;;;;;6.47;4.77;;;;;;;18.16;56.08;97339.19;5037428;28;20275;-68
2023/05/07 00:33:22;;;;;;;8.50;4.87;;;;;;;18.11;56.37;97339.81;5028502;28;20218;-69
2023/05/07 00:35:47;;;;;;;6.60;4.40;;;;;;;18.04;56.53;97342.41;5019580;28;20187;-70
2023/05/07 00:38:13;;;;;;;4.73;4.30;;;;;;;18.00;56.74;97337.72;5026186;28;20184;-69
2023/05/07 00:40:38;;;;;;;10.33;5.00;;;;;;;17.93;56.75;97338.44;5028868;28;20204;-69
2023/05/07 00:43:04;;;;;;;4.83;4.40;;;;;;;17.90;56.86;97335.38;5027458;28;20298;-69
2023/05/07 00:45:30;;;;;;;7.43;5.27;;;;;;;17.90;56.81;97332.72;5029626;28;20187;-69
2023/05/07 00:47:56;;;;;;;7.50;4.30;;;;;;;17.85;57.07;97328.03;5029014;28;20180;-69
2023/05/07 00:50:22;;;;;;;4.87;4.33;;;;;;;17.83;56.98;97319.44;5025637;28;20262;-69
2023/05/07 00:52:47;;;;;;;5.27;4.67;;;;;;;17.82;56.95;97328.41;5030043;28;20434;-69
2023/05/07 00:55:14;;;;;;;5.13;4.33;;;;;;;17.89;56.78;97323.97;5031318;28;20192;-70
2023/05/07 00:57:41;;;;;;;6.00;4.30;;;;;;;17.86;57.00;97329.66;5029967;28;20180;-69
2023/05/07 01:00:08;;;;;;;6.93;4.90;;;;;;;17.80;57.14;97319.81;5036281;28;20544;-69
2023/05/07 01:02:35;;;;;;;4.53;4.10;;;;;;;17.73;57.26;97318.97;5030154;28;20449;-69
2023/05/07 01:05:01;;;;;;;6.40;4.67;;;;;;;17.73;57.24;97318.97;5025089;28;20965;-70
2023/05/07 01:07:27;;;;;;;7.80;4.80;;;;;;;17.81;57.13;97329.41;5019472;28;20431;-69
2023/05/07 01:09:53;;;;;;;5.30;4.20;;;;;;;17.85;57.01;97332.47;5037173;28;20426;-68
2023/05/07 01:12:19;;;;;;;7.10;4.77;;;;;;;17.81;56.77;97330.25;5028266;28;20246;-68
2023/05/07 01:14:44;;;;;;;6.63;5.10;;;;;;;17.80;57.19;97330.41;5028650;28;20184;-70
2023/05/07 01:17:10;;;;;;;6.63;4.60;;;;;;;17.77;57.23;97320.22;5031009;28;20469;-69
2023/05/07 01:19:36;;;;;;;5.30;4.73;;;;;;;17.74;57.22;97325.91;5027891;28;20574;-69
2023/05/07 01:22:04;;;;;;;5.80;4.87;;;;;;;17.62;57.65;97325.63;5029626;28;20206;-70
2023/05/07 01:24:31;;;;;;;5.63;4.33;;;;;;;17.60;57.80;97320.53;5029820;28;20191;-68
2023/05/07 01:26:56;;;;;;;6.23;4.27;;;;;;;17.60;57.68;97322.34;5030065;28;21134;-68
2023/05/07 01:29:22;;;;;;;4.30;3.90;;;;;;;17.62;57.91;97328.28;5009497;28;20419;-69
2023/05/07 01:31:47;;;;;;;8.93;4.20;;;;;;;17.61;57.56;97324.81;5010649;28;20581;-67
2023/05/07 01:34:15;;;;;;;5.97;3.90;;;;;;;17.52;58.02;97318.03;5005084;28;20187;-69
2023/05/07 01:36:42;;;;;;;4.07;3.67;;;;;;;17.53;58.08;97319.66;5035390;28;20180;-69
2023/05/07 01:39:08;;;;;;;4.57;4.17;;;;;;;17.58;57.66;97324.41;5033194;28;20426;-71
2023/05/07 01:41:34;;;;;;;4.17;3.77;;;;;;;17.54;57.99;97315.19;5029010;28;21005;-70
2023/05/07 01:44:00;;;;;;;4.73;3.90;;;;;;;17.48;57.79;97316.78;5029500;28;20434;-71
2023/05/07 01:46:27;;;;;;;4.50;3.80;;;;;;;17.45;58.05;97319.81;5035027;28;20668;-70
2023/05/07 01:48:53;;;;;;;6.97;4.37;;;;;;;17.41;58.34;97318.56;5029818;28;20817;-69
2023/05/07 01:51:20;;;;;;;5.70;4.40;;;;;;;17.46;58.11;97310.84;5033574;28;20418;-70
2023/05/07 01:53:47;;;;;;;5.83;4.40;;;;;;;17.40;58.30;97314.25;5027694;28;20208;-70
2023/05/07 01:56:13;;;;;;;4.80;4.40;;;;;;;17.47;58.11;97318.59;5031771;28;20941;-69
2023/05/07 01:58:38;;;;;;;6.17;4.70;;;;;;;17.50;58.10;97309.47;5028070;28;20430;-71
2023/05/07 02:01:03;;;;;;;9.53;4.33;;;;;;;17.44;58.18;97313.72;5024302;28;20742;-70
2023/05/07 02:03:29;;;;;;;6.80;4.33;;;;;;;17.31;58.31;97319.72;5023908;28;20210;-70
2023/05/07 02:05:54;;;;;;;6.70;4.00;;;;;;;17.31;58.48;97326.88;5023815;28;20218;-71
2023/05/07 02:08:20;;;;;;;10.00;3.93;;;;;;;17.27;58.77;97318.47;5033728;28;20187;-70
2023/05/07 02:10:45;;;;;;;6.30;4.60;;;;;;;17.24;58.59;97320.69;5030359;28;20817;-70
2023/05/07 02:13:11;;;;;;;4.63;4.20;;;;;;;17.33;58.65;97322.16;5024687;28;20231;-71
2023/05/07 02:15:36;;;;;;;5.50;3.90;;;;;;;17.28;58.62;97322.75;5027520;28;20275;-70
2023/05/07 02:18:04;;;;;;;5.03;4.50;;;;;;;17.38;58.61;97316.31;5028116;28;20219;-70
2023/05/07 02:20:29;;;;;;;4.10;3.60;;;;;;;17.33;58.48;97323.00;5025834;28;20203;-71
2023/05/07 02:22:55;;;;;;;7.77;4.20;;;;;;;17.39;58.49;97324.06;5028577;28;20489;-69
2023/05/07 02:25:20;;;;;;;6.20;3.80;;;;;;;17.30;58.71;97320.72;5036343;28;20183;-70
2023/05/07 02:27:46;;;;;;;5.90;4.40;;;;;;;17.37;58.61;97323.44;5028657;28;20212;-70
2023/05/07 02:30:11;;;;;;;6.63;4.27;;;;;;;17.18;58.87;97319.63;5029058;28;20183;-71
2023/05/07 02:32:37;;;;;;;5.10;4.33;;;;;;;17.15;59.08;97320.00;5028024;28;20838;-71
2023/05/07 02:35:02;;;;;;;13.43;4.70;;;;;;;17.20;58.79;97315.75;5027428;28;20219;-70
2023/05/07 02:37:28;;;;;;;4.57;4.07;;;;;;;17.27;58.70;97315.00;5026997;28;20179;-69
2023/05/07 02:39:53;;;;;;;7.03;4.03;;;;;;;17.21;58.96;97319.25;5027547;28;20186;-67
2023/05/07 02:42:19;;;;;;;4.30;3.90;;;;;;;17.17;58.87;97320.63;5028768;28;20226;-69
2023/05/07 02:44:44;;;;;;;9.60;4.83;;;;;;;17.11;59.13;97311.63;5027806;28;20665;-69
2023/05/07 02:47:10;;;;;;;5.40;4.27;;;;;;;17.11;59.09;97316.91;5033802;28;20271;-69
2023/05/07 02:49:35;;;;;;;5.47;4.53;;;;;;;17.03;59.45;97320.50;5032657;28;20194;-69
2023/05/07 02:52:01;;;;;;;4.50;4.10;;;;;;;17.03;59.48;97319.72;5030025;28;20218;-68
2023/05/07 02:54:26;;;;;;;4.57;4.17;;;;;;;17.08;59.24;97321.78;5033643;28;20188;-69
2023/05/07 02:56:51;;;;;;;10.30;4.30;;;;;;;17.08;59.20;97324.44;5027800;28;20616;-67
2023/05/07 02:59:17;;;;;;;9.50;4.73;;;;;;;17.00;59.33;97315.63;5027977;28;20211;-70
2023/05/07 03:01:45;;;;;;;5.60;4.50;;;;;;;16.98;59.55;97311.50;5027592;28;20208;-69
2023/05/07 03:04:10;;;;;;;4.60;4.00;;;;;;;16.91;59.65;97311.41;5027903;28;20708;-70
2023/05/07 03:06:36;;;;;;;4.00;3.70;;;;;;;16.85;59.92;97305.06;5027970;28;20437;-70
2023/05/07 03:09:01;;;;;;;6.57;4.13;;;;;;;16.82;59.91;97296.69;5032883;28;20195;-70
2023/05/07 03:11:27;;;;;;;5.63;4.17;;;;;;;16.94;59.72;97297.00;5031897;28;20184;-69
2023/05/07 03:13:52;;;;;;;6.43;4.20;;;;;;;16.99;59.48;97290.16;5036918;28;20184;-68
2023/05/07 03:16:18;;;;;;;7.17;4.07;;;;;;;16.89;59.35;97286.97;5033066;28;20270;-70
2023/05/07 03:18:43;;;;;;;5.50;4.03;;;;;;;16.80;59.62;97285.47;5027327;28;20199;-70
2023/05/07 03:21:08;;;;;;;4.40;3.70;;;;;;;16.89;59.28;97287.81;5028620;28;20215;-69
2023/05/07 03:23:34;;;;;;;7.30;4.03;;;;;;;16.88;59.17;97288.81;5028351;28;20203;-69
2023/05/07 03:25:59;;;;;;;4.50;4.10;;;;;;;16.89;59.27;97287.81;5028873;28;20742;-69
2023/05/07 03:28:25;;;;;;;4.80;3.80;;;;;;;16.83;59.44;97283.25;5028366;28;20188;-70
2023/05/07 03:30:50;;;;;;;4.67;3.63;;;;;;;16.79;59.75;97283.81;5027493;28;20192;-68
2023/05/07 03:33:16;;;;;;;8.00;4.23;;;;;;;16.80;59.72;97288.13;5027912;28;20214;-70
2023/05/07 03:35:41;;;;;;;6.27;3.83;;;;;;;16.80;59.21;97293.41;5034481;28;20183;-71
2023/05/07 03:38:07;;;;;;;4.00;3.40;;;;;;;16.80;59.21;97298.69;5029822;28;20184;-69
2023/05/07 03:40:32;;;;;;;9.10;4.00;;;;;;;16.69;59.41;97300.84;5033167;28;20199;-70
2023/05/07 03:42:59;;;;;;;4.90;4.40;;;;;;;16.59;59.58;97295.06;5034281;28;20202;-70
2023/05/07 03:45:25;;;;;;;5.30;4.13;;;;;;;16.43;60.05;97304.88;5034256;28;20628;-71
2023/05/07 03:47:51;;;;;;;5.77;4.27;;;;;;;16.41;60.29;97301.56;5032980;28;20427;-70
2023/05/07 03:50:16;;;;;;;4.70;3.90;;;;;;;16.40;60.04;97302.59;5027622;28;20246;-70
2023/05/07 03:52:42;;;;;;;4.37;3.90;;;;;;;16.48;59.83;97300.84;5031610;28;20211;-71
2023/05/07 03:55:07;;;;;;;4.97;4.40;;;;;;;16.49;59.65;97311.22;5032233;28;20192;-69
2023/05/07 03:57:33;;;;;;;6.60;4.57;;;;;;;16.52;59.94;97302.09;5031891;28;20183;-69
2023/05/07 03:59:58;;;;;;;4.93;4.10;;;;;;;16.57;59.40;97305.00;5032119;28;20263;-69
2023/05/07 04:02:24;;;;;;;5.33;4.17;;;;;;;16.58;59.73;97304.00;5029222;28;20219;-69
2023/05/07 04:04:49;;;;;;;8.93;4.07;;;;;;;16.58;59.52;97306.66;5035890;28;20241;-69
2023/05/07 04:07:15;;;;;;;4.47;4.00;;;;;;;16.64;59.48;97305.06;5029777;28;20176;-70
2023/05/07 04:09:40;;;;;;;9.30;4.17;;;;;;;16.67;59.16;97310.78;5030065;28;20192;-70
2023/05/07 04:12:06;;;;;;;4.13;3.70;;;;;;;16.67;58.92;97300.22;5033885;28;20214;-70
2023/05/07 04:14:34;;;;;;;5.73;4.17;;;;;;;16.58;59.21;97311.94;5003179;28;20198;-70
2023/05/07 04:17:00;;;;;;;5.67;4.47;;;;;;;16.45;59.40;97309.94;5028841;28;20267;-68
2023/05/07 04:19:25;;;;;;;4.23;3.83;;;;;;;16.37;59.36;97308.28;4988682;28;20937;-70
2023/05/07 04:21:51;;;;;;;5.27;3.80;;;;;;;16.41;59.30;97317.44;5016588;28;20247;-69
2023/05/07 04:24:16;;;;;;;3.57;3.27;;;;;;;16.38;59.20;97315.16;5035422;28;20478;-70
2023/05/07 04:26:42;;;;;;;5.17;3.73;;;;;;;16.35;59.33;97315.56;5029677;28;20284;-70
2023/05/07 04:29:07;;;;;;;4.70;4.30;;;;;;;16.30;59.96;97328.50;5038019;28;20195;-70
2023/05/07 04:31:33;;;;;;;4.33;3.87;;;;;;;16.22;60.41;97333.91;5032145;28;20194;-70
2023/05/07 04:33:58;;;;;;;7.00;3.80;;;;;;;16.27;60.32;97326.22;5028844;28;20188;-67
2023/05/07 04:36:27;;;;;;;5.50;4.10;;;;;;;16.33;60.17;97333.44;5038171;28;20266;-68
2023/05/07 04:38:53;;;;;;;5.73;4.00;;;;;;;16.44;59.87;97326.84;5039156;28;20188;-70
2023/05/07 04:41:19;;;;;;;4.10;3.70;;;;;;;16.51;59.42;97327.75;5033741;28;20462;-70
2023/05/07 04:43:44;;;;;;;5.23;4.03;;;;;;;16.46;59.60;97322.16;5034657;28;20503;-70
2023/05/07 04:46:09;;;;;;;4.77;3.73;;;;;;;16.46;59.60;97324.81;5036434;28;20191;-70
2023/05/07 04:48:35;;;;;;;5.90;4.07;;;;;;;16.42;59.70;97329.66;5028878;28;20274;-69
2023/05/07 04:51:00;;;;;;;9.97;4.30;;;;;;;16.29;60.20;97334.81;5038486;28;20631;-70
2023/05/07 04:53:26;;;;;;;3.87;3.57;;;;;;;16.31;60.22;97332.81;5029479;28;20207;-69
2023/05/07 04:55:58;;;;;;;9.30;5.27;;;;;;;16.21;60.16;97327.78;5040021;28;20179;-68
2023/05/07 04:58:23;;;;;;;5.70;3.50;;;;;;;16.27;60.11;97327.06;5035140;28;20183;-70
2023/05/07 05:00:49;;;;;;;4.20;3.80;;;;;;;16.28;60.53;97338.44;5040183;28;20464;-70
2023/05/07 05:03:14;;;;;;;4.73;4.20;;;;;;;16.32;60.37;97345.03;5028538;28;20439;-70
2023/05/07 05:05:40;;;;;;;5.50;4.30;;;;;;;16.28;60.47;97338.44;5029017;28;20183;-70
2023/05/07 05:08:06;;;;;;;4.40;4.00;;;;;;;16.31;60.50;97347.88;5028573;28;20190;-71
2023/05/07 05:10:31;;;;;;;4.77;4.37;;;;;;;16.23;60.95;97351.44;5028682;28;20711;-70
2023/05/07 05:12:56;;;;;;;6.43;4.73;;;;;;;16.32;60.84;97350.31;5021843;28;20298;-70
2023/05/07 05:15:22;;;;;;;5.77;4.03;;;;;;;16.39;60.55;97359.13;5032885;28;20682;-71
2023/05/07 05:17:47;;;;;;;8.43;4.30;;;;;;;16.46;60.55;97355.75;5028492;28;20199;-70
2023/05/07 05:20:14;;;;;;;6.07;4.37;;;;;;;16.55;60.70;97362.56;5034899;28;20242;-70
2023/05/07 05:22:39;;;;;;;4.67;4.27;;;;;;;16.54;60.73;97363.56;5026400;28;20587;-70
2023/05/07 05:25:05;;;;;;;4.00;3.60;;;;;;;16.56;60.85;97359.75;5031081;28;20427;-70
2023/05/07 05:27:30;;;;;;;5.53;4.97;;;;;;;16.71;61.02;97353.56;5028647;28;20309;-70
2023/05/07 05:29:55;;;;;;;21.70;11.70;;;;;;;16.87;60.97;97360.47;5031524;28;20183;-70
2023/05/07 05:32:21;;;;;;;11.97;9.43;;;;;;;17.00;60.51;97357.97;5037471;28;20218;-71
2023/05/07 05:34:47;;;;;;;9.70;8.70;;;;;;;17.12;60.30;97360.94;5028401;28;20219;-71
2023/05/07 05:37:12;;;;;;;7.80;6.57;;;;;;;17.29;60.13;97360.66;5032518;28;20195;-71
2023/05/07 05:39:37;;;;;;;10.83;8.23;;;;;;;17.47;59.67;97360.19;5029263;28;20319;-70
2023/05/07 05:42:03;;;;;;;5.60;4.90;;;;;;;17.57;59.74;97367.81;5022905;28;20266;-70
2023/05/07 05:44:29;;;;;;;7.60;5.63;;;;;;;17.75;59.91;97367.31;5035138;28;20195;-71
2023/05/07 05:46:55;;;;;;;7.50;4.30;;;;;;;17.87;59.60;97360.47;5028827;28;20241;-70
2023/05/07 05:49:21;;;;;;;21.60;4.07;;;;;;;18.07;59.06;97357.09;5029091;28;20180;-71
2023/05/07 05:51:46;;;;;;;5.10;4.37;;;;;;;18.25;58.84;97351.28;5027502;28;20838;-71
2023/05/07 05:54:12;;;;;;;4.80;4.30;;;;;;;18.47;58.30;97357.28;5031971;28;20503;-72
2023/05/07 05:56:37;;;;;;;8.20;4.43;;;;;;;18.68;57.61;97355.50;5027492;28;20644;-72
2023/05/07 05:59:03;;;;;;;3.90;3.53;;;;;;;18.86;55.62;97365.53;5034587;28;20219;-71
2023/05/07 06:01:28;;;;;;;4.10;3.43;;;;;;;19.04;54.94;97370.28;5031411;28;20290;-71
2023/05/07 06:03:54;;;;;;;4.63;4.20;;;;;;;19.24;52.10;97369.50;5027953;28;20200;-69
2023/05/07 06:06:20;;;;;;;4.57;3.50;;;;;;;19.37;51.95;97372.16;5029228;28;20630;-70
2023/05/07 06:08:45;;;;;;;3.60;3.30;;;;;;;19.47;50.67;97382.34;5026650;28;20254;-70
2023/05/07 06:11:11;;;;;;;4.00;3.60;;;;;;;19.47;50.52;97372.56;5039620;28;20189;-70
2023/05/07 06:13:36;;;;;;;3.77;3.47;;;;;;;19.70;50.07;97376.63;5031372;28;20254;-70
2023/05/07 06:16:02;;;;;;;4.40;3.43;;;;;;;19.88;50.27;97375.22;5039449;28;20274;-70
2023/05/07 06:18:27;;;;;;;3.67;3.37;;;;;;;20.02;50.16;97379.47;5030338;28;20641;-70
2023/05/07 06:20:53;;;;;;;3.30;3.10;;;;;;;20.10;49.32;97376.56;5028040;28;20214;-71
2023/05/07 06:23:18;;;;;;;4.13;3.73;;;;;;;20.25;49.29;97375.50;5034047;28;20206;-70
2023/05/07 06:25:50;;;;;;;4.17;3.27;;;;;;;20.39;49.40;97374.44;5033741;28;20175;-69
2023/05/07 06:28:16;;;;;;;5.70;3.60;;;;;;;20.46;48.95;97376.25;5028390;28;20214;-69
2023/05/07 06:30:41;;;;;;;3.60;3.30;;;;;;;20.51;48.18;97376.44;5028001;28;20446;-70
2023/05/07 06:33:07;;;;;;;5.30;4.40;;;;;;;20.53;47.92;97377.03;5028538;28;20219;-71
2023/05/07 06:35:32;;;;;;;5.50;3.10;;;;;;;20.40;47.76;97384.06;5035941;28;20246;-70
2023/05/07 06:37:57;;;;;;;5.30;2.80;;;;;;;20.37;47.88;97383.63;5030044;28;20679;-70
2023/05/07 06:40:23;;;;;;;3.20;2.90;;;;;;;20.35;48.28;97383.06;5032935;28;20187;-71
2023/05/07 06:42:48;;;;;;;4.50;3.73;;;;;;;20.31;48.84;97379.97;5027879;28;20229;-70
2023/05/07 06:45:14;;;;;;;6.03;3.67;;;;;;;20.28;48.82;97380.41;5030383;28;20192;-71
2023/05/07 06:47:39;;;;;;;4.33;3.93;;;;;;;20.35;48.68;97389.19;5030058;28;20195;-70
2023/05/07 06:50:05;;;;;;;4.30;3.67;;;;;;;20.55;49.14;97382.94;5027461;28;20278;-71
2023/05/07 06:52:31;;;;;;;4.67;3.90;;;;;;;20.74;48.62;97385.72;5035126;28;20695;-71
2023/05/07 06:54:56;;;;;;;4.23;3.93;;;;;;;20.94;47.43;97391.78;5028307;28;20429;-70
2023/05/07 06:57:22;;;;;;;4.00;3.60;;;;;;;21.09;47.17;97382.69;5033709;28;20214;-70
2023/05/07 06:59:47;;;;;;;6.33;3.77;;;;;;;21.22;47.25;97379.13;5031525;28;20330;-71
2023/05/07 07:02:13;;;;;;;4.70;3.93;;;;;;;21.39;46.96;97374.06;5032625;28;20874;-70
2023/05/07 07:04:38;;;;;;;4.37;3.70;;;;;;;21.52;46.22;97381.94;5032180;28;20730;-72
2023/05/07 07:07:03;;;;;;;3.90;3.60;;;;;;;21.71;46.51;97374.00;5028204;28;20283;-71
2023/05/07 07:09:29;;;;;;;5.27;3.40;;;;;;;21.84;45.93;97376.53;5032912;28;20186;-71
2023/05/07 07:11:54;;;;;;;4.00;3.60;;;;;;;21.94;45.27;97374.16;5034883;28;20254;-71
2023/05/07 07:14:20;;;;;;;4.90;3.70;;;;;;;22.06;45.21;97381.44;5037501;28;20277;-73
2023/05/07 07:16:46;;;;;;;6.37;3.93;;;;;;;22.15;45.32;97382.78;5032136;28;20187;-71
2023/05/07 07:19:12;;;;;;;8.20;4.60;;;;;;;22.02;45.21;97375.75;5034097;28;20726;-69
2023/05/07 07:21:37;;;;;;;4.63;4.13;;;;;;;22.26;45.73;97375.88;5035340;28;20449;-71
2023/05/07 07:24:03;;;;;;;4.27;3.73;;;;;;;22.53;45.31;97373.75;5030649;28;20270;-70
2023/05/07 07:26:28;;;;;;;4.80;4.30;;;;;;;22.65;44.44;97370.31;5034650;28;20569;-70
2023/05/07 07:28:54;;;;;;;5.60;4.03;;;;;;;22.88;44.47;97376.78;5046799;28;20190;-71
2023/05/07 07:31:19;;;;;;;4.60;3.73;;;;;;;23.06;44.08;97363.34;5028026;28;20188;-70
2023/05/07 07:33:45;;;;;;;3.50;3.20;;;;;;;23.22;43.59;97367.25;5030157;28;20207;-70
2023/05/07 07:36:10;;;;;;;3.70;3.30;;;;;;;23.41;43.71;97365.31;5036765;28;20189;-71
2023/05/07 07:38:36;;;;;;;5.00;3.23;;;;;;;23.66;43.41;97366.09;5028564;28;20266;-71
2023/05/07 07:41:01;;;;;;;4.03;3.63;;;;;;;23.73;43.32;97372.97;5038737;28;20246;-70
2023/05/07 07:43:27;;;;;;;4.10;3.70;;;;;;;23.95;42.37;97372.38;5033818;28;20205;-70
2023/05/07 07:45:53;;;;;;;3.87;3.47;;;;;;;23.95;42.56;97375.03;5033883;28;20207;-70
2023/05/07 07:48:18;;;;;;;4.00;3.70;;;;;;;24.08;42.15;97374.03;5033232;28;20192;-70
2023/05/07 07:50:44;;;;;;;3.93;3.63;;;;;;;24.09;41.96;97375.66;5029363;28;20672;-70
2023/05/07 07:53:09;;;;;;;4.03;3.70;;;;;;;24.16;42.25;97376.31;5031190;28;20293;-71
2023/05/07 07:55:39;;;;;;;4.10;3.60;;;;;;;24.27;42.57;97376.53;5035187;28;20195;-71
2023/05/07 07:58:04;;;;;;;4.70;3.40;;;;;;;24.17;41.69;97374.47;5022000;28;20207;-71
2023/05/07 08:00:30;;;;;;;3.53;3.23;;;;;;;24.38;42.45;97378.41;5026407;28;20427;-70
2023/05/07 08:02:55;;;;;;;3.67;3.37;;;;;;;24.53;41.86;97380.56;5027672;28;20311;-70
2023/05/07 08:05:21;;;;;;;4.37;3.23;;;;;;;24.46;40.61;97385.22;5028308;28;20322;-72
2023/05/07 08:07:51;;;;;;;4.57;3.87;;;;;;;24.47;40.97;97376.97;5031302;28;20269;-71
2023/05/07 08:10:20;;;;;;;7.20;4.50;;;;;;;24.61;41.59;97372.13;5027741;28;20275;-70
2023/05/07 08:12:48;;;;;;;4.33;3.13;;;;;;;24.73;41.07;97376.66;5039350;28;21024;-71
2023/05/07 08:15:13;;;;;;;5.40;3.00;;;;;;;24.83;41.23;97376.81;5025625;28;20434;-69
2023/05/07 08:17:39;;;;;;;8.97;3.20;;;;;;;24.95;41.10;97382.16;5028963;28;20434;-71
2023/05/07 08:20:05;;;;;;;7.90;3.00;;;;;;;25.15;40.97;97379.00;5035094;28;20203;-70
2023/05/07 08:22:30;;;;;;;4.73;3.07;;;;;;;25.32;40.02;97380.91;5024617;28;20274;-70
2023/05/07 08:24:56;;;;;;;3.83;2.80;;;;;;;25.54;39.55;97383.66;5035251;28;20513;-70
2023/05/07 08:27:21;;;;;;;2.93;2.73;;;;;;;25.67;39.01;97372.59;5032598;28;20179;-71
2023/05/07 08:29:47;;;;;;;3.40;2.70;;;;;;;25.74;38.93;97381.31;5034276;28;20194;-70
2023/05/07 08:32:13;;;;;;;5.77;3.00;;;;;;;25.57;39.30;97375.13;5025673;28;20213;-70
2023/05/07 08:34:38;;;;;;;3.30;3.00;;;;;;;25.84;39.86;97372.56;5023005;28;20453;-69
2023/05/07 08:37:04;;;;;;;4.40;3.90;;;;;;;26.10;39.09;97372.13;5029995;28;20227;-68
2023/05/07 08:39:29;;;;;;;3.53;2.90;;;;;;;25.94;38.46;97368.41;5030837;28;20610;-69
2023/05/07 08:41:58;;;;;;;6.00;2.90;;;;;;;26.09;39.39;97368.59;5031812;28;20247;-70
2023/05/07 08:44:27;;;;;;;3.03;2.70;;;;;;;26.27;38.47;97369.41;5033171;28;20187;-70
2023/05/07 08:46:54;;;;;;;2.70;2.50;;;;;;;26.20;38.65;97381.16;5031443;28;20438;-71
2023/05/07 08:49:20;;;;;;;3.50;3.20;;;;;;;26.29;38.01;97378.03;5026727;28;20419;-70
2023/05/07 08:51:46;;;;;;;4.10;2.97;;;;;;;26.53;38.35;97376.69;5026959;28;20792;-72
2023/05/07 08:54:12;;;;;;;2.80;2.50;;;;;;;26.63;37.74;97378.69;5028976;28;20427;-71
2023/05/07 08:56:39;;;;;;;6.07;3.13;;;;;;;26.84;37.46;97381.63;5035116;28;20188;-69
2023/05/07 08:59:05;;;;;;;3.00;2.80;;;;;;;26.95;36.80;97375.28;5038191;28;20438;-71
2023/05/07 09:01:30;;;;;;;23.57;2.67;;;;;;;27.07;36.82;97369.75;5032001;28;20457;-70
2023/05/07 09:03:57;;;;;;;9.90;2.97;;;;;;;27.16;36.53;97375.44;5030104;28;20204;-70
2023/05/07 09:06:22;;;;;;;2.70;2.50;;;;;;;27.38;36.65;97371.88;5019144;28;20664;-71
2023/05/07 09:08:52;;;;;;;2.80;2.60;;;;;;;27.41;36.48;97364.09;5029181;28;20429;-70
2023/05/07 09:11:20;;;;;;;3.73;2.70;;;;;;;27.53;35.91;97380.09;5038297;28;20184;-70
2023/05/07 09:13:46;;;;;;;2.73;2.53;;;;;;;27.64;35.76;97375.56;5029312;28;20462;-71
2023/05/07 09:16:12;;;;;;;7.93;3.90;;;;;;;27.82;35.75;97376.22;5037790;28;20427;-68
2023/05/07 09:18:44;;;;;;;3.43;2.53;;;;;;;27.90;35.62;97378.44;5022487;28;20180;-69
2023/05/07 09:21:15;;;;;;;3.90;2.90;;;;;;;27.96;35.86;97369.31;5028995;28;20472;-72
2023/05/07 09:23:41;;;;;;;5.97;3.90;;;;;;;27.97;35.37;97368.25;5032713;28;20447;-72
2023/05/07 09:26:11;;;;;;;7.90;3.30;;;;;;;27.98;35.63;97360.97;5036239;28;20807;-71
2023/05/07 09:28:38;;;;;;;3.80;2.53;;;;;;;28.09;35.40;97354.59;5029857;28;20191;-72
2023/05/07 09:31:04;;;;;;;2.77;2.50;;;;;;;28.19;34.97;97353.81;5029046;28;20757;-69
2023/05/07 09:33:30;;;;;;;3.20;2.57;;;;;;;28.29;35.12;97353.06;5028932;28;20521;-71
2023/05/07 09:35:55;;;;;;;3.63;2.87;;;;;;;28.57;34.94;97354.50;5033451;28;20621;-70
2023/05/07 09:38:21;;;;;;;4.60;2.50;;;;;;;28.59;33.85;97351.53;5028893;28;20502;-72
2023/05/07 09:40:47;;;;;;;2.23;2.13;;;;;;;28.59;33.94;97363.13;5038871;28;20217;-69
2023/05/07 09:43:13;;;;;;;2.53;2.17;;;;;;;28.64;33.47;97348.84;5034385;28;20272;-71
2023/05/07 09:45:39;;;;;;;6.10;2.50;;;;;;;28.80;32.96;97353.19;5029457;28;20613;-70
2023/05/07 09:48:06;;;;;;;4.90;2.43;;;;;;;28.68;33.14;97355.31;5022598;28;20427;-69
2023/05/07 09:50:48;;;;;;;5.80;2.23;;;;;;;28.54;33.67;97360.41;5034373;28;20292;-69
2023/05/07 09:53:14;;;;;;;2.70;2.50;;;;;;;28.75;33.05;97345.13;5029594;28;20454;-69
2023/05/07 09:55:40;;;;;;;2.80;2.60;;;;;;;28.62;33.99;97357.19;5034089;28;20844;-69
2023/05/07 09:58:06;;;;;;;4.43;2.20;;;;;;;28.93;33.63;97362.69;5029404;28;20509;-72
2023/05/07 10:00:32;;;;;;;3.33;2.50;;;;;;;28.65;33.20;97364.75;5027623;28;20184;-72
2023/05/07 10:02:58;;;;;;;5.67;2.50;;;;;;;28.61;33.66;97352.88;5027574;28;20938;-71
2023/05/07 10:05:23;;;;;;;5.43;2.30;;;;;;;28.95;33.70;97355.13;5038078;28;20215;-70
2023/05/07 10:07:50;;;;;;;2.43;2.23;;;;;;;28.99;33.31;97343.78;5036926;28;20183;-70
2023/05/07 10:10:17;;;;;;;2.87;2.67;;;;;;;29.22;32.62;97345.97;5037492;28;20226;-71
2023/05/07 10:12:42;;;;;;;2.73;2.40;;;;;;;29.17;33.17;97335.16;5044576;28;20453;-72
2023/05/07 10:15:10;;;;;;;10.10;2.80;;;;;;;29.38;32.53;97338.69;5029500;28;20430;-70
2023/05/07 10:17:37;;;;;;;2.97;2.43;;;;;;;29.62;32.75;97324.63;5025386;28;20184;-71
2023/05/07 10:20:03;;;;;;;4.27;2.30;;;;;;;29.77;32.52;97318.38;5028464;28;20800;-70
2023/05/07 10:22:34;;;;;;;2.40;2.20;;;;;;;29.91;32.01;97313.22;5027057;28;20462;-70
2023/05/07 10:25:02;;;;;;;2.57;2.10;;;;;;;30.12;31.82;97319.34;5029300;28;20502;-69
2023/05/07 10:27:28;;;;;;;2.93;2.57;;;;;;;30.33;31.56;97325.47;5034963;28;20442;-70
2023/05/07 10:30:13;;;;;;;2.70;2.50;;;;;;;29.73;30.87;97320.81;5027229;28;20770;-72
2023/05/07 10:32:47;;;;;;;2.53;2.33;;;;;;;30.02;31.33;97316.69;5021425;28;20450;-71
2023/05/07 10:35:36;;;;;;;3.00;1.97;;;;;;;30.33;30.74;97324.66;5018024;28;20433;-71
2023/05/07 10:38:02;;;;;;;3.20;1.80;;;;;;;30.10;30.56;97316.13;4975069;28;21231;-70
2023/05/07 10:40:28;;;;;;;2.20;2.00;;;;;;;29.85;30.45;97312.41;5032587;28;20422;-71
2023/05/07 10:42:55;;;;;;;2.93;2.10;;;;;;;29.96;30.17;97312.41;5027402;28;20468;-71
2023/05/07 10:45:21;;;;;;;7.97;1.97;;;;;;;29.91;30.50;97320.50;5026087;28;20179;-69
2023/05/07 10:48:15;;;;;;;7.57;2.10;;;;;;;30.02;30.23;97314.00;5020870;28;20428;-72
2023/05/07 10:50:43;;;;;;;4.57;2.40;;;;;;;29.96;30.58;97307.81;5021917;28;20263;-71
2023/05/07 10:53:17;;;;;;;4.67;2.00;;;;;;;29.94;29.53;97309.13;5030740;28;21139;-70
2023/05/07 10:55:50;;;;;;;2.20;2.00;;;;;;;30.08;30.10;97307.50;5028267;28;20821;-72
2023/05/07 10:58:21;;;;;;;3.77;2.23;;;;;;;30.37;29.91;97297.88;5030535;28;20954;-71
2023/05/07 11:00:48;;;;;;;3.30;2.30;;;;;;;30.48;28.93;97299.44;5029086;28;20433;-73
2023/05/07 11:03:14;;;;;;;3.20;2.10;;;;;;;30.47;29.05;97305.94;5028600;28;20802;-72
2023/05/07 11:05:41;;;;;;;3.07;2.13;;;;;;;30.57;28.72;97302.41;5018605;28;20517;-71
2023/05/07 11:08:06;;;;;;;3.13;2.30;;;;;;;30.27;29.47;97306.84;5029838;28;20441;-71
2023/05/07 11:10:51;;;;;;;2.10;1.83;;;;;;;30.56;28.86;97304.28;5038782;28;20491;-72
2023/05/07 11:13:17;;;;;;;2.43;1.90;;;;;;;30.67;29.43;97293.41;5028702;28;20213;-71
2023/05/07 11:15:47;;;;;;;2.60;1.93;;;;;;;30.69;28.49;97292.03;5018852;28;20427;-71
2023/05/07 11:18:15;;;;;;;2.87;1.73;;;;;;;30.82;29.09;97292.50;5025175;28;20504;-70
2023/05/07 11:20:49;;;;;;;3.97;1.90;;;;;;;30.79;28.58;97286.56;5028258;28;20418;-72
2023/05/07 11:23:53;;;;;;;2.00;1.80;;;;;;;30.73;28.65;97286.88;5026433;28;20504;-71
2023/05/07 11:26:18;;;;;;;3.30;2.10;;;;;;;30.52;28.86;97283.47;5031954;28;20434;-71
2023/05/07 11:28:44;;;;;;;3.37;2.20;;;;;;;30.26;29.13;97280.91;5028648;28;20426;-72
2023/05/07 11:31:10;;;;;;;3.47;2.30;;;;;;;29.91;29.31;97282.69;5027086;28;20277;-71